Time;durP1;ratioP1;P1;durP2;ratioP2;P2;SDS_P1;SDS_P2;PMS_P1;PMS_P2;Temp;Humidity;BMP_temperature;BMP_pressure;BME280_temperature;BME280_humidity;BME280_pressure;Samples;Min_cycle;Max_cycle;Signal;HPM_P1;HPM_P2
2023/09/08 00:03:34;;;;;;;5.93;3.88;;;;;;;;;;10458480;27;20058;-63
2023/09/08 00:08:32;;;;;;;7.50;3.50;;;;;;;;;;10457678;27;20059;-63
2023/09/08 00:13:31;;;;;;;4.88;3.90;;;;;;;;;;10458996;27;20077;-63
2023/09/08 00:18:31;;;;;;;5.07;3.55;;;;;;;;;;10445991;27;20074;-63
2023/09/08 00:23:30;;;;;;;4.53;3.28;;;;;;;;;;10457593;27;20073;-63
2023/09/08 00:28:28;;;;;;;6.07;3.70;;;;;;;;;;10452416;27;20082;-63
2023/09/08 00:33:26;;;;;;;6.07;3.60;;;;;;;;;;10456872;27;20078;-63
2023/09/08 00:38:26;;;;;;;5.20;3.80;;;;;;;;;;10454356;27;20074;-63
2023/09/08 00:43:24;;;;;;;4.55;3.20;;;;;;;;;;10445852;27;20062;-63
2023/09/08 00:48:23;;;;;;;9.30;3.75;;;;;;;;;;10455928;27;20097;-63
2023/09/08 00:53:21;;;;;;;6.35;4.07;;;;;;;;;;10446235;27;20066;-63
2023/09/08 00:58:21;;;;;;;6.25;3.90;;;;;;;;;;10454404;27;20062;-65
2023/09/08 01:03:19;;;;;;;5.70;4.20;;;;;;;;;;10457618;27;20062;-62
2023/09/08 01:08:18;;;;;;;6.03;4.00;;;;;;;;;;10455331;27;20078;-62
2023/09/08 01:13:16;;;;;;;9.18;3.95;;;;;;;;;;10455279;27;20063;-63
2023/09/08 01:18:16;;;;;;;9.23;4.43;;;;;;;;;;10452377;27;20066;-63
2023/09/08 01:23:22;;;;;;;7.55;3.60;;;;;;;;;;10441509;27;20075;-62
2023/09/08 01:28:23;;;;;;;9.88;4.05;;;;;;;;;;10458979;27;20082;-63
2023/09/08 01:33:22;;;;;;;4.85;4.25;;;;;;;;;;10454712;27;20074;-63
2023/09/08 01:38:22;;;;;;;9.00;4.10;;;;;;;;;;10458595;27;20063;-63
2023/09/08 01:43:21;;;;;;;8.68;4.40;;;;;;;;;;10455282;27;20070;-64
2023/09/08 01:48:19;;;;;;;6.22;5.03;;;;;;;;;;10454213;27;20511;-64
2023/09/08 01:53:18;;;;;;;6.10;4.68;;;;;;;;;;10449837;27;20063;-64
2023/09/08 01:58:16;;;;;;;8.40;5.15;;;;;;;;;;10457478;27;20077;-62
2023/09/08 02:03:16;;;;;;;11.35;4.97;;;;;;;;;;10444558;27;20070;-63
2023/09/08 02:08:14;;;;;;;11.35;5.55;;;;;;;;;;10453421;27;20073;-63
2023/09/08 02:13:13;;;;;;;6.82;4.43;;;;;;;;;;10453555;27;20077;-62
2023/09/08 02:18:11;;;;;;;7.75;4.95;;;;;;;;;;10455011;27;20074;-62
2023/09/08 02:23:12;;;;;;;7.53;4.55;;;;;;;;;;10435569;27;20400;-63
2023/09/08 02:28:10;;;;;;;7.10;5.20;;;;;;;;;;10453573;27;20190;-62
2023/09/08 02:33:09;;;;;;;6.78;5.22;;;;;;;;;;10450220;27;20075;-63
2023/09/08 02:38:08;;;;;;;14.63;4.57;;;;;;;;;;10450590;27;20464;-63
2023/09/08 02:43:08;;;;;;;10.07;4.90;;;;;;;;;;10433252;27;20152;-63
2023/09/08 02:48:07;;;;;;;12.48;5.85;;;;;;;;;;10452014;27;20081;-62
2023/09/08 02:53:05;;;;;;;9.75;5.30;;;;;;;;;;10439227;27;20575;-62
2023/09/08 02:58:04;;;;;;;10.50;5.03;;;;;;;;;;10433287;27;20082;-63
2023/09/08 03:03:04;;;;;;;8.13;4.65;;;;;;;;;;10449991;27;20058;-63
2023/09/08 03:08:03;;;;;;;10.23;5.38;;;;;;;;;;10436454;27;20067;-63
2023/09/08 03:13:01;;;;;;;7.63;5.82;;;;;;;;;;10455513;27;20075;-63
2023/09/08 03:17:59;;;;;;;7.80;4.28;;;;;;;;;;10455693;27;20083;-63
2023/09/08 03:22:59;;;;;;;10.65;5.15;;;;;;;;;;10448934;27;20473;-63
2023/09/08 03:27:57;;;;;;;9.10;5.65;;;;;;;;;;10452577;27;20087;-63
2023/09/08 03:32:56;;;;;;;16.55;6.10;;;;;;;;;;10437002;27;20459;-64
2023/09/08 03:37:54;;;;;;;11.32;4.60;;;;;;;;;;10440187;27;20507;-63
2023/09/08 03:42:54;;;;;;;8.40;5.82;;;;;;;;;;10443897;27;20081;-63
2023/09/08 03:47:53;;;;;;;8.73;5.38;;;;;;;;;;10439239;27;20082;-63
2023/09/08 03:52:53;;;;;;;7.75;5.78;;;;;;;;;;10444870;27;20054;-63
2023/09/08 03:57:51;;;;;;;10.13;5.72;;;;;;;;;;10463496;27;20074;-62
2023/09/08 04:02:51;;;;;;;8.70;5.00;;;;;;;;;;10456259;27;20515;-62
2023/09/08 04:07:50;;;;;;;9.98;5.13;;;;;;;;;;10457384;27;20073;-62
2023/09/08 04:12:49;;;;;;;10.35;5.68;;;;;;;;;;10437791;27;20074;-61
2023/09/08 04:17:47;;;;;;;14.05;5.93;;;;;;;;;;10462349;27;20079;-62
2023/09/08 04:22:47;;;;;;;5.93;4.70;;;;;;;;;;10456654;27;20075;-62
2023/09/08 04:27:46;;;;;;;7.43;4.72;;;;;;;;;;10438981;27;20054;-64
2023/09/08 04:32:44;;;;;;;7.25;4.50;;;;;;;;;;10463857;27;20078;-63
2023/09/08 04:37:43;;;;;;;8.05;4.78;;;;;;;;;;10457086;27;20074;-64
2023/09/08 04:42:42;;;;;;;5.80;4.55;;;;;;;;;;10461815;27;20081;-65
2023/09/08 04:47:42;;;;;;;11.20;4.80;;;;;;;;;;10439071;27;20066;-63
2023/09/08 04:52:41;;;;;;;8.65;5.15;;;;;;;;;;10436208;27;20058;-63
2023/09/08 04:57:40;;;;;;;9.50;4.70;;;;;;;;;;10435070;27;20086;-63
2023/09/08 05:02:40;;;;;;;6.18;4.85;;;;;;;;;;10452483;27;20074;-63
2023/09/08 05:07:39;;;;;;;7.47;4.40;;;;;;;;;;10460377;27;20063;-63
2023/09/08 05:12:37;;;;;;;8.63;5.03;;;;;;;;;;10439476;27;20678;-62
2023/09/08 05:17:35;;;;;;;7.45;4.63;;;;;;;;;;10457719;27;20088;-63
2023/09/08 05:22:36;;;;;;;11.70;5.05;;;;;;;;;;10457849;27;20069;-63
2023/09/08 05:27:35;;;;;;;8.18;4.95;;;;;;;;;;10440444;27;20526;-63
2023/09/08 05:32:34;;;;;;;9.02;4.22;;;;;;;;;;10446591;27;20066;-63
2023/09/08 05:37:32;;;;;;;6.95;4.60;;;;;;;;;;10457319;27;20067;-63
2023/09/08 05:42:32;;;;;;;11.48;5.13;;;;;;;;;;10455522;27;20069;-64
2023/09/08 05:47:33;;;;;;;6.03;4.50;;;;;;;;;;10438875;27;20090;-63
2023/09/08 05:52:33;;;;;;;11.45;4.82;;;;;;;;;;10435597;27;20075;-64
2023/09/08 05:57:34;;;;;;;10.32;3.88;;;;;;;;;;10439509;27;20070;-64
2023/09/08 06:02:33;;;;;;;8.50;4.28;;;;;;;;;;10441691;27;20587;-64
2023/09/08 06:07:31;;;;;;;9.35;4.45;;;;;;;;;;10444677;27;20488;-64
2023/09/08 06:12:30;;;;;;;8.07;3.95;;;;;;;;;;10438401;27;20063;-64
2023/09/08 06:17:29;;;;;;;7.45;4.03;;;;;;;;;;10452069;27;20091;-62
2023/09/08 06:22:28;;;;;;;6.68;3.33;;;;;;;;;;10456006;27;20520;-62
2023/09/08 06:27:26;;;;;;;5.57;3.50;;;;;;;;;;10459517;27;20074;-63
2023/09/08 06:32:25;;;;;;;9.95;4.00;;;;;;;;;;10443878;27;20066;-61
2023/09/08 06:37:25;;;;;;;8.65;3.35;;;;;;;;;;10456122;27;20486;-62
2023/09/08 06:42:24;;;;;;;6.13;3.22;;;;;;;;;;10432755;27;20074;-63
2023/09/08 06:47:28;;;;;;;6.07;3.75;;;;;;;;;;10441736;27;20074;-63
2023/09/08 06:52:28;;;;;;;6.32;3.35;;;;;;;;;;10434414;27;20069;-64
2023/09/08 06:57:29;;;;;;;10.80;3.75;;;;;;;;;;10435068;27;20078;-64
2023/09/08 07:02:27;;;;;;;5.63;3.70;;;;;;;;;;10435936;27;20082;-63
2023/09/08 07:07:26;;;;;;;6.70;3.42;;;;;;;;;;10441815;27;20082;-63
2023/09/08 07:12:26;;;;;;;7.05;3.78;;;;;;;;;;10469113;27;20074;-63
2023/09/08 07:17:25;;;;;;;4.78;3.28;;;;;;;;;;10460905;27;20066;-64
2023/09/08 07:22:24;;;;;;;8.88;3.70;;;;;;;;;;10444951;27;20070;-63
2023/09/08 07:27:23;;;;;;;9.70;4.05;;;;;;;;;;10440993;27;20097;-62
2023/09/08 07:32:24;;;;;;;7.85;3.58;;;;;;;;;;10465637;27;20147;-62
2023/09/08 07:37:23;;;;;;;6.70;3.10;;;;;;;;;;10446259;27;20085;-64
2023/09/08 07:42:23;;;;;;;8.85;3.17;;;;;;;;;;10445250;27;20132;-64
2023/09/08 07:47:23;;;;;;;4.82;3.17;;;;;;;;;;10446205;27;20050;-61
2023/09/08 07:52:21;;;;;;;11.60;3.67;;;;;;;;;;10466553;27;20507;-63
2023/09/08 07:57:19;;;;;;;9.02;4.50;;;;;;;;;;10464624;27;20635;-63
2023/09/08 08:02:18;;;;;;;6.05;3.17;;;;;;;;;;10461976;27;20077;-63
2023/09/08 08:07:17;;;;;;;11.38;3.72;;;;;;;;;;10463168;27;20063;-63
2023/09/08 08:12:16;;;;;;;10.48;4.85;;;;;;;;;;10466934;27;20063;-64
2023/09/08 08:17:17;;;;;;;8.32;3.38;;;;;;;;;;10465689;27;20081;-63
2023/09/08 08:22:15;;;;;;;5.43;3.83;;;;;;;;;;10462226;27;20067;-63
2023/09/08 08:27:15;;;;;;;13.30;3.67;;;;;;;;;;10459292;27;20152;-64
2023/09/08 08:32:13;;;;;;;8.98;3.83;;;;;;;;;;10459466;27;20079;-63
2023/09/08 08:37:11;;;;;;;10.73;3.90;;;;;;;;;;10459761;27;20306;-63
2023/09/08 08:42:11;;;;;;;7.47;3.17;;;;;;;;;;10459231;27;20070;-64
2023/09/08 08:47:12;;;;;;;17.25;4.25;;;;;;;;;;10455499;27;20062;-63
2023/09/08 08:52:11;;;;;;;9.77;3.65;;;;;;;;;;10465070;27;20070;-65
2023/09/08 08:57:10;;;;;;;8.25;3.78;;;;;;;;;;10455356;27;20077;-64
2023/09/08 09:02:09;;;;;;;6.43;3.40;;;;;;;;;;10456419;27;20071;-65
2023/09/08 09:07:09;;;;;;;8.93;3.72;;;;;;;;;;10460779;27;20514;-63
2023/09/08 09:12:07;;;;;;;9.88;4.13;;;;;;;;;;10455717;27;20069;-63
2023/09/08 09:17:11;;;;;;;8.48;3.45;;;;;;;;;;10457180;27;20081;-64
2023/09/08 09:22:11;;;;;;;6.70;3.53;;;;;;;;;;10458510;27;20062;-63
2023/09/08 09:27:09;;;;;;;4.05;2.88;;;;;;;;;;10453453;27;20078;-63
2023/09/08 09:32:08;;;;;;;11.32;3.60;;;;;;;;;;10459910;27;20077;-64
2023/09/08 09:37:06;;;;;;;8.63;3.80;;;;;;;;;;10455850;27;20074;-63
2023/09/08 09:42:07;;;;;;;7.70;3.55;;;;;;;;;;10456691;27;20086;-64
2023/09/08 09:47:06;;;;;;;9.23;3.38;;;;;;;;;;10461259;27;20066;-63
2023/09/08 09:52:05;;;;;;;10.10;3.78;;;;;;;;;;10456328;27;20067;-64
2023/09/08 09:57:07;;;;;;;13.40;3.50;;;;;;;;;;10451984;27;20070;-62
2023/09/08 10:02:06;;;;;;;9.25;4.05;;;;;;;;;;10455133;27;20075;-65
2023/09/08 10:07:04;;;;;;;8.07;3.90;;;;;;;;;;10457153;27;20491;-65
2023/09/08 10:12:04;;;;;;;11.88;3.53;;;;;;;;;;10457836;27;20074;-64
2023/09/08 10:17:06;;;;;;;12.50;3.70;;;;;;;;;;10456127;27;20484;-64
2023/09/08 10:22:06;;;;;;;10.88;4.00;;;;;;;;;;10457123;27;20081;-64
2023/09/08 10:27:05;;;;;;;11.02;4.22;;;;;;;;;;10457641;27;20082;-65
2023/09/08 10:32:09;;;;;;;8.18;3.63;;;;;;;;;;10452769;27;20491;-65
2023/09/08 10:37:19;;;;;;;9.43;3.90;;;;;;;;;;10455803;27;20066;-64
2023/09/08 10:42:21;;;;;;;5.78;3.00;;;;;;;;;;10456560;27;20074;-64
2023/09/08 10:47:23;;;;;;;6.38;3.85;;;;;;;;;;10459452;27;20074;-64
2023/09/08 10:52:22;;;;;;;5.50;3.55;;;;;;;;;;10451767;27;20074;-63
2023/09/08 10:57:22;;;;;;;5.75;3.22;;;;;;;;;;10454407;27;20071;-64
2023/09/08 11:02:34;;;;;;;10.57;3.22;;;;;;;;;;10459363;27;20066;-65
2023/09/08 11:07:33;;;;;;;6.13;2.90;;;;;;;;;;10455374;27;20482;-64
2023/09/08 11:12:32;;;;;;;5.97;3.08;;;;;;;;;;10455902;27;20063;-64
2023/09/08 11:17:30;;;;;;;4.78;2.97;;;;;;;;;;10455980;27;20073;-63
2023/09/08 11:22:30;;;;;;;5.80;2.30;;;;;;;;;;10458761;27;20085;-64
2023/09/08 11:27:28;;;;;;;7.82;3.13;;;;;;;;;;10457779;27;20472;-64
2023/09/08 11:32:32;;;;;;;8.15;3.28;;;;;;;;;;10455822;27;20073;-64
2023/09/08 11:37:32;;;;;;;4.35;2.85;;;;;;;;;;10451599;27;20086;-64
2023/09/08 11:42:30;;;;;;;7.00;3.05;;;;;;;;;;10455077;27;20066;-64
2023/09/08 11:47:28;;;;;;;4.40;2.55;;;;;;;;;;10448204;27;20135;-64
2023/09/08 11:52:27;;;;;;;4.38;2.78;;;;;;;;;;10456070;27;20054;-63
2023/09/08 11:57:26;;;;;;;4.28;3.05;;;;;;;;;;10461002;27;20513;-64
2023/09/08 12:02:25;;;;;;;5.57;2.50;;;;;;;;;;10458326;27;20066;-64
2023/09/08 12:07:23;;;;;;;8.48;2.70;;;;;;;;;;10462621;27;20062;-64
2023/09/08 12:12:21;;;;;;;8.82;2.97;;;;;;;;;;10463682;27;20090;-65
2023/09/08 12:17:24;;;;;;;5.50;2.60;;;;;;;;;;10460600;27;20086;-64
2023/09/08 12:22:22;;;;;;;6.78;3.20;;;;;;;;;;10457920;27;20070;-62
2023/09/08 12:27:21;;;;;;;5.22;2.67;;;;;;;;;;10457426;27;20077;-64
2023/09/08 12:32:20;;;;;;;4.85;2.83;;;;;;;;;;10458632;27;20101;-62
2023/09/08 12:37:22;;;;;;;4.55;2.80;;;;;;;;;;10457776;27;20463;-63
2023/09/08 12:42:21;;;;;;;5.57;2.88;;;;;;;;;;10451852;27;20063;-63
2023/09/08 12:47:21;;;;;;;3.10;2.38;;;;;;;;;;10453513;27;20517;-64
2023/09/08 12:52:22;;;;;;;6.78;2.42;;;;;;;;;;10457348;27;20537;-63
2023/09/08 12:57:20;;;;;;;3.78;2.38;;;;;;;;;;10458612;27;20069;-64
2023/09/08 13:02:19;;;;;;;4.03;2.17;;;;;;;;;;10453707;27;20071;-63
2023/09/08 13:07:19;;;;;;;3.58;2.55;;;;;;;;;;10453204;27;20491;-63
2023/09/08 13:12:17;;;;;;;7.10;2.92;;;;;;;;;;10456707;27;20106;-62
2023/09/08 13:17:16;;;;;;;7.90;2.95;;;;;;;;;;10456433;27;20456;-63
2023/09/08 13:22:14;;;;;;;5.63;2.05;;;;;;;;;;10449255;27;20115;-64
2023/09/08 13:27:17;;;;;;;7.38;1.77;;;;;;;;;;10458561;27;20078;-63
2023/09/08 13:32:18;;;;;;;3.30;2.15;;;;;;;;;;10460997;27;20062;-63
2023/09/08 13:37:17;;;;;;;5.07;2.50;;;;;;;;;;10459506;27;20498;-63
2023/09/08 13:42:16;;;;;;;5.13;2.70;;;;;;;;;;10459694;27;20073;-64
2023/09/08 13:47:17;;;;;;;4.32;2.40;;;;;;;;;;10460060;27;20066;-63
2023/09/08 13:52:17;;;;;;;4.00;2.00;;;;;;;;;;10443456;27;20593;-62
2023/09/08 13:57:19;;;;;;;3.85;2.17;;;;;;;;;;10455670;27;20080;-64
2023/09/08 14:02:20;;;;;;;3.45;2.15;;;;;;;;;;10451683;27;20077;-66
2023/09/08 14:07:21;;;;;;;8.30;2.72;;;;;;;;;;10437668;27;20086;-66
2023/09/08 14:12:24;;;;;;;13.05;2.22;;;;;;;;;;10457831;27;20077;-65
2023/09/08 14:17:32;;;;;;;3.65;2.15;;;;;;;;;;10455541;27;20135;-65
2023/09/08 14:22:30;;;;;;;5.90;2.15;;;;;;;;;;10440952;27;20577;-65
2023/09/08 14:27:30;;;;;;;2.80;2.15;;;;;;;;;;10449693;27;20074;-65
2023/09/08 14:32:28;;;;;;;3.92;2.13;;;;;;;;;;10443039;27;20123;-66
2023/09/08 14:37:26;;;;;;;3.58;2.78;;;;;;;;;;10443907;27;20071;-67
2023/09/08 14:42:27;;;;;;;6.65;2.10;;;;;;;;;;10446415;27;20070;-66
2023/09/08 14:47:27;;;;;;;9.43;2.60;;;;;;;;;;10443845;27;20073;-65
2023/09/08 14:52:25;;;;;;;6.60;1.83;;;;;;;;;;10444822;27;20070;-66
2023/09/08 14:57:24;;;;;;;9.95;3.20;;;;;;;;;;10444146;27;20115;-66
2023/09/08 15:02:22;;;;;;;9.80;3.10;;;;;;;;;;10428203;27;20070;-66
2023/09/08 15:07:22;;;;;;;8.88;2.05;;;;;;;;;;10449819;27;20084;-66
2023/09/08 15:12:20;;;;;;;5.07;1.55;;;;;;;;;;10452655;27;20697;-66
2023/09/08 15:17:19;;;;;;;8.32;2.70;;;;;;;;;;10454681;27;20066;-66
2023/09/08 15:22:17;;;;;;;7.93;2.08;;;;;;;;;;10453148;27;20074;-66
2023/09/08 15:27:17;;;;;;;6.57;2.25;;;;;;;;;;10457218;27;20085;-66
2023/09/08 15:32:15;;;;;;;8.05;2.15;;;;;;;;;;10460998;27;20482;-67
2023/09/08 15:37:13;;;;;;;1.77;1.60;;;;;;;;;;10461353;27;20077;-67
2023/09/08 15:42:13;;;;;;;7.47;2.20;;;;;;;;;;10459879;27;20078;-65
2023/09/08 15:47:13;;;;;;;2.15;1.85;;;;;;;;;;10463381;27;20444;-66
2023/09/08 15:52:12;;;;;;;7.68;2.35;;;;;;;;;;10458672;27;20081;-65
2023/09/08 15:57:14;;;;;;;3.55;1.90;;;;;;;;;;10459535;27;20074;-67
2023/09/08 16:02:12;;;;;;;7.63;2.28;;;;;;;;;;10458523;27;20101;-67
2023/09/08 16:07:12;;;;;;;4.95;1.92;;;;;;;;;;10457017;27;20074;-67
2023/09/08 16:12:10;;;;;;;6.93;2.00;;;;;;;;;;10458616;27;20082;-66
2023/09/08 16:17:08;;;;;;;3.85;1.70;;;;;;;;;;10459568;27;20066;-66
2023/09/08 16:22:07;;;;;;;10.68;2.20;;;;;;;;;;10461164;27;20067;-66
2023/09/08 16:27:06;;;;;;;8.45;2.00;;;;;;;;;;10458159;27;20511;-67
2023/09/08 16:32:04;;;;;;;3.28;1.80;;;;;;;;;;10459912;27;20070;-66
2023/09/08 16:37:03;;;;;;;8.65;2.33;;;;;;;;;;10457258;27;20069;-67
2023/09/08 16:42:01;;;;;;;5.13;2.05;;;;;;;;;;10459766;27;20089;-67
2023/09/08 16:47:01;;;;;;;7.90;2.30;;;;;;;;;;10458600;27;20078;-66
2023/09/08 16:51:59;;;;;;;13.88;2.50;;;;;;;;;;10458783;27;20086;-65
2023/09/08 16:56:58;;;;;;;6.43;2.72;;;;;;;;;;10458915;27;20066;-66
2023/09/08 17:01:56;;;;;;;5.00;2.00;;;;;;;;;;10457129;27;20077;-66
2023/09/08 17:06:56;;;;;;;7.30;1.83;;;;;;;;;;10456204;27;20077;-66
2023/09/08 17:11:54;;;;;;;7.13;1.98;;;;;;;;;;10455723;27;20085;-67
2023/09/08 17:16:52;;;;;;;4.20;2.25;;;;;;;;;;10457756;27;20081;-67
2023/09/08 17:21:51;;;;;;;5.13;2.50;;;;;;;;;;10456911;27;20085;-67
2023/09/08 17:26:51;;;;;;;6.63;1.90;;;;;;;;;;10456400;27;20071;-67
2023/09/08 17:31:49;;;;;;;4.10;2.30;;;;;;;;;;10455705;27;20523;-67
2023/09/08 17:36:48;;;;;;;9.25;2.20;;;;;;;;;;10457324;27;20055;-66
2023/09/08 17:41:47;;;;;;;6.75;3.50;;;;;;;;;;10457000;27;20067;-66
2023/09/08 17:46:47;;;;;;;6.70;2.20;;;;;;;;;;10453703;27;20511;-67
2023/09/08 17:51:45;;;;;;;6.85;2.22;;;;;;;;;;10455186;27;20081;-67
2023/09/08 17:56:44;;;;;;;10.70;2.67;;;;;;;;;;10454830;27;20091;-67
2023/09/08 18:01:42;;;;;;;6.95;1.70;;;;;;;;;;10455882;27;20090;-66
2023/09/08 18:06:42;;;;;;;6.72;1.90;;;;;;;;;;10452314;27;20063;-67
2023/09/08 18:11:40;;;;;;;5.53;1.73;;;;;;;;;;10451500;27;20405;-67
2023/09/08 18:16:39;;;;;;;9.57;3.28;;;;;;;;;;10451441;27;20551;-66
2023/09/08 18:21:37;;;;;;;5.32;1.92;;;;;;;;;;10454815;27;20066;-67
2023/09/08 18:26:37;;;;;;;12.82;2.20;;;;;;;;;;10454535;27;20073;-67
2023/09/08 18:31:35;;;;;;;5.55;2.00;;;;;;;;;;10454390;27;20070;-67
2023/09/08 18:36:33;;;;;;;10.32;1.85;;;;;;;;;;10454133;27;20067;-67
2023/09/08 18:41:32;;;;;;;5.50;2.10;;;;;;;;;;10449387;27;20601;-67
2023/09/08 18:46:31;;;;;;;10.60;2.05;;;;;;;;;;10454050;27;20473;-66
2023/09/08 18:51:30;;;;;;;5.70;2.20;;;;;;;;;;10452607;27;20075;-67
2023/09/08 18:56:28;;;;;;;2.80;1.98;;;;;;;;;;10455299;27;20066;-66
2023/09/08 19:01:26;;;;;;;10.50;2.03;;;;;;;;;;10438743;27;20050;-65
2023/09/08 19:06:26;;;;;;;8.30;1.92;;;;;;;;;;10458646;27;20097;-66
2023/09/08 19:11:24;;;;;;;16.17;1.90;;;;;;;;;;10459991;27;20063;-66
2023/09/08 19:16:22;;;;;;;7.00;1.65;;;;;;;;;;10461498;27;20059;-66
2023/09/08 19:21:20;;;;;;;9.50;2.70;;;;;;;;;;10443690;27;20078;-66
2023/09/08 19:26:20;;;;;;;10.10;2.70;;;;;;;;;;10459967;27;20077;-66
2023/09/08 19:31:18;;;;;;;7.75;2.30;;;;;;;;;;10462337;27;20074;-67
2023/09/08 19:36:16;;;;;;;4.93;1.88;;;;;;;;;;10459944;27;20067;-67
2023/09/08 19:41:15;;;;;;;4.93;1.70;;;;;;;;;;10459747;27;20091;-66
2023/09/08 19:46:14;;;;;;;2.85;1.92;;;;;;;;;;10461470;27;20470;-67
2023/09/08 19:51:14;;;;;;;3.58;1.88;;;;;;;;;;10458970;27;20526;-66
2023/09/08 19:56:14;;;;;;;2.80;1.55;;;;;;;;;;10461092;27;20072;-66
2023/09/08 20:01:13;;;;;;;5.50;1.83;;;;;;;;;;10458925;27;20507;-66
2023/09/08 20:06:15;;;;;;;6.32;1.67;;;;;;;;;;10459897;27;20109;-66
2023/09/08 20:11:13;;;;;;;5.05;1.65;;;;;;;;;;10455259;27;20073;-66
2023/09/08 20:16:12;;;;;;;4.90;1.85;;;;;;;;;;10459171;27;20066;-66
2023/09/08 20:21:11;;;;;;;5.47;2.17;;;;;;;;;;10457611;27;20090;-66
2023/09/08 20:26:10;;;;;;;5.00;1.60;;;;;;;;;;10454247;27;20066;-66
2023/09/08 20:31:09;;;;;;;3.35;1.73;;;;;;;;;;10459941;27;20081;-66
2023/09/08 20:36:16;;;;;;;4.07;1.50;;;;;;;;;;10459254;27;20082;-66
2023/09/08 20:41:16;;;;;;;9.38;2.58;;;;;;;;;;10460756;27;20075;-67
2023/09/08 20:46:15;;;;;;;4.05;2.20;;;;;;;;;;10461660;27;20467;-67
2023/09/08 20:51:14;;;;;;;7.80;2.30;;;;;;;;;;10458374;27;20518;-66
2023/09/08 20:56:12;;;;;;;7.60;1.90;;;;;;;;;;10460977;27;20069;-66
2023/09/08 21:01:12;;;;;;;5.00;2.35;;;;;;;;;;10453257;27;20081;-66
2023/09/08 21:06:12;;;;;;;4.80;2.00;;;;;;;;;;10450546;27;20071;-67
2023/09/08 21:11:10;;;;;;;11.73;2.33;;;;;;;;;;10455289;27;20062;-66
2023/09/08 21:16:08;;;;;;;2.92;2.47;;;;;;;;;;10454037;27;20066;-66
2023/09/08 21:21:08;;;;;;;5.68;2.17;;;;;;;;;;10458702;27;20063;-65
2023/09/08 21:26:07;;;;;;;5.00;2.38;;;;;;;;;;10455126;27;20074;-66
2023/09/08 21:31:07;;;;;;;6.25;2.72;;;;;;;;;;10458315;27;20148;-66
2023/09/08 21:36:06;;;;;;;3.58;1.95;;;;;;;;;;10457270;27;20069;-67
2023/09/08 21:41:09;;;;;;;4.95;1.67;;;;;;;;;;10460151;27;20067;-66
2023/09/08 21:46:09;;;;;;;4.40;2.15;;;;;;;;;;10455681;27;20078;-66
2023/09/08 21:51:08;;;;;;;6.13;1.92;;;;;;;;;;10456796;27;20530;-67
2023/09/08 21:56:07;;;;;;;2.30;1.90;;;;;;;;;;10458128;27;20070;-67
2023/09/08 22:01:06;;;;;;;2.40;1.48;;;;;;;;;;10455283;27;20480;-67
2023/09/08 22:06:06;;;;;;;10.07;2.42;;;;;;;;;;10453553;27;20499;-67
2023/09/08 22:11:04;;;;;;;4.30;1.50;;;;;;;;;;10454331;27;20059;-66
2023/09/08 22:16:04;;;;;;;2.88;2.17;;;;;;;;;;10456700;27;20075;-67
2023/09/08 22:21:04;;;;;;;4.60;2.40;;;;;;;;;;10454771;27;20598;-66
2023/09/08 22:26:03;;;;;;;4.60;2.08;;;;;;;;;;10453887;27;20078;-67
2023/09/08 22:31:02;;;;;;;2.53;2.33;;;;;;;;;;10456152;27;20074;-67
2023/09/08 22:36:00;;;;;;;5.47;2.40;;;;;;;;;;10452208;27;20066;-66
2023/09/08 22:41:00;;;;;;;3.55;2.50;;;;;;;;;;10453132;27;20081;-67
2023/09/08 22:45:58;;;;;;;6.95;2.58;;;;;;;;;;10453512;27;20105;-66
2023/09/08 22:50:56;;;;;;;4.68;2.00;;;;;;;;;;10456845;27;20082;-67
2023/09/08 22:55:54;;;;;;;4.55;2.50;;;;;;;;;;10454215;27;20089;-65
2023/09/08 23:00:54;;;;;;;4.65;2.15;;;;;;;;;;10433221;27;20050;-66
2023/09/08 23:05:52;;;;;;;6.20;2.75;;;;;;;;;;10457216;27;20074;-66
2023/09/08 23:10:51;;;;;;;5.95;2.15;;;;;;;;;;10453149;27;20654;-67
2023/09/08 23:15:51;;;;;;;4.60;1.75;;;;;;;;;;10454700;27;20070;-67
2023/09/08 23:20:51;;;;;;;6.95;2.00;;;;;;;;;;10453272;27;20047;-67
2023/09/08 23:25:49;;;;;;;4.65;2.30;;;;;;;;;;10453645;27;20071;-66
2023/09/08 23:30:47;;;;;;;5.15;1.88;;;;;;;;;;10433332;27;20086;-66
2023/09/08 23:35:46;;;;;;;5.35;2.10;;;;;;;;;;10454180;27;20067;-65
2023/09/08 23:40:45;;;;;;;5.88;2.60;;;;;;;;;;10451844;27;20102;-66
2023/09/08 23:45:45;;;;;;;2.75;2.17;;;;;;;;;;10454929;27;20089;-65
2023/09/08 23:50:50;;;;;;;5.25;2.30;;;;;;;;;;10456899;27;20066;-65
2023/09/08 23:55:50;;;;;;;4.78;2.63;;;;;;;;;;10460250;27;20085;-65
